CheckWX is a tool to help pilots better visualize weather data.  It is not intended as a substitute for an official pre-flight weather briefing.

11:43:54 UTC

KNDZ METAR
Whiting Field NAS South Airport
Milton, Florida, USA
Current

48 mins ago

KNDZ 141056Z AUTO 05004KT 10SM CLR 20/18 A3004 RMK AO2 SLP157 T02000178 $
Observed
Oct-14 @ 10:56 UTC
Wind
  • 050° at 4 KTS
Visibility
10 SM
Flight Rules
VFR
Cloud Levels
  • Clear skies
Temperature
20°C / 68°F
Dewpoint
18°C / 64°F
Humidity
88%
Altimeter
30.04" Hg
Pressure
1017.32 hPa
Previous

2 hours ago

KNDZ 140956Z AUTO 09003KT 10SM FEW110 21/18 A3002 RMK AO2 SLP151 T02060178 $
Observed
Oct-14 @ 09:56 UTC
Wind
  • 090° at 3 KTS
Visibility
10 SM
Flight Rules
VFR
Cloud Levels
  • Few at 11,000' AGL
Temperature
21°C / 70°F
Dewpoint
18°C / 64°F
Humidity
83%
Altimeter
30.02" Hg
Pressure
1016.62 hPa
Previous

3 hours ago

KNDZ 140856Z AUTO 04005KT 10SM BKN110 21/18 A3003 RMK AO2 SLP153 T02110178 56007 $
Observed
Oct-14 @ 08:56 UTC
Wind
  • 040° at 5 KTS
Visibility
10 SM
Flight Rules
VFR
Cloud Levels
  • Broken at 11,000' AGL
Temperature
21°C / 70°F
Dewpoint
18°C / 64°F
Humidity
83%
Altimeter
30.03" Hg
Pressure
1016.92 hPa